createdAt,value
2022-10-07T00:01:50.922Z,102821.69
2022-10-07T00:04:20.569Z,102815.84
2022-10-07T00:06:50.303Z,102815.84
2022-10-07T00:09:20.399Z,102819.09
2022-10-07T00:11:50.123Z,102809.71
2022-10-07T00:14:19.879Z,102801.69
2022-10-07T00:16:49.701Z,102812.41
2022-10-07T00:19:19.482Z,102802.21
2022-10-07T00:21:49.535Z,102802.05
2022-10-07T00:24:19.065Z,102795.16
2022-10-07T00:26:48.801Z,102795.91
2022-10-07T00:29:18.597Z,102803.09
2022-10-07T00:31:48.353Z,102795.16
2022-10-07T00:34:18.048Z,102796.41
2022-10-07T00:36:49.701Z,102788.00
2022-10-07T00:39:19.784Z,102788.08
2022-10-07T00:41:51.759Z,102785.78
2022-10-07T00:44:44.705Z,102785.14
2022-10-07T00:47:32.165Z,102786.09
2022-10-07T00:50:04.949Z,102772.05
2022-10-07T00:52:38.142Z,102775.69
2022-10-07T00:55:11.042Z,102770.15
2022-10-07T00:57:42.225Z,102771.20
2022-10-07T01:00:13.214Z,102769.44
2022-10-07T01:02:43.437Z,102756.38
2022-10-07T01:05:14.199Z,102763.77
2022-10-07T01:07:48.333Z,102762.48
2022-10-07T01:10:21.886Z,102755.17
2022-10-07T01:13:09.373Z,102748.00
2022-10-07T01:15:44.864Z,102748.00
2022-10-07T01:18:26.165Z,102737.83
2022-10-07T01:21:07.484Z,102737.83
2022-10-07T01:23:40.269Z,102736.34
2022-10-07T01:26:15.776Z,102730.61
2022-10-07T01:28:56.668Z,102730.61
2022-10-07T01:31:32.247Z,102730.59
2022-10-07T01:34:04.433Z,102723.61
2022-10-07T01:36:37.010Z,102719.55
2022-10-07T01:39:12.438Z,102720.44
2022-10-07T01:41:42.854Z,102724.86
2022-10-07T01:44:14.646Z,102704.05
2022-10-07T01:46:45.190Z,102704.05
2022-10-07T01:49:15.029Z,102705.64
2022-10-07T01:51:49.506Z,102702.05
2022-10-07T01:54:24.803Z,102700.28
2022-10-07T01:57:10.737Z,102694.83
2022-10-07T01:59:50.568Z,102686.47
2022-10-07T02:02:24.297Z,102687.40
2022-10-07T02:05:18.739Z,102681.61
2022-10-07T02:08:16.491Z,102676.64
2022-10-07T02:10:51.980Z,102681.61
2022-10-07T02:13:44.664Z,102674.38
2022-10-07T02:16:36.859Z,102677.11
2022-10-07T02:19:09.717Z,102667.41
2022-10-07T02:21:40.084Z,102672.59
2022-10-07T02:24:12.150Z,102660.37
2022-10-07T02:26:44.197Z,102657.25
2022-10-07T02:29:17.589Z,102657.41
2022-10-07T02:31:50.657Z,102657.00
2022-10-07T02:34:23.927Z,102657.00
2022-10-07T02:36:57.718Z,102651.47
2022-10-07T02:39:29.763Z,102645.23
2022-10-07T02:42:11.436Z,102641.78
2022-10-07T02:44:46.957Z,102643.81
2022-10-07T02:47:22.422Z,102643.86
2022-10-07T02:49:53.800Z,102637.56
2022-10-07T02:52:25.052Z,102632.59
2022-10-07T02:55:00.823Z,102630.03
2022-10-07T02:57:33.985Z,102624.47
2022-10-07T03:00:11.129Z,102617.39
2022-10-07T03:02:46.930Z,102621.48
2022-10-07T03:05:21.368Z,102615.97
2022-10-07T03:07:54.522Z,102615.97
2022-10-07T03:10:26.121Z,102612.83
2022-10-07T03:12:56.471Z,102612.83
2022-10-07T03:15:27.653Z,102614.77
2022-10-07T03:17:59.026Z,102611.17
2022-10-07T03:20:30.679Z,102603.70
2022-10-07T03:25:27.560Z,102609.00
2022-10-07T03:27:58.175Z,102608.53
2022-10-07T03:30:28.948Z,102606.26
2022-10-07T03:32:59.223Z,102600.99
2022-10-07T03:35:30.256Z,102593.83
2022-10-07T03:38:00.058Z,102592.95
2022-10-07T03:40:29.888Z,102591.62
2022-10-07T03:42:59.788Z,102581.20
2022-10-07T03:45:32.911Z,102586.95
2022-10-07T03:48:02.675Z,102579.92
2022-10-07T03:50:32.488Z,102581.12
2022-10-07T03:53:02.310Z,102579.50
2022-10-07T03:55:32.392Z,102581.31
2022-10-07T03:58:02.788Z,102575.89
2022-10-07T04:00:33.503Z,102573.11
2022-10-07T04:03:03.530Z,102573.67
2022-10-07T04:05:33.296Z,102574.07
2022-10-07T04:08:04.762Z,102570.58
2022-10-07T04:10:35.096Z,102568.97
2022-10-07T04:13:05.582Z,102567.71
2022-10-07T04:15:36.883Z,102566.86
2022-10-07T04:18:07.969Z,102566.09
2022-10-07T04:20:39.550Z,102562.41
2022-10-07T04:23:10.723Z,102560.34
2022-10-07T04:25:45.542Z,102546.30
2022-10-07T04:28:20.231Z,102559.49
2022-10-07T04:30:52.108Z,102559.49
2022-10-07T04:33:25.009Z,102558.93
2022-10-07T04:35:56.229Z,102552.71
2022-10-07T04:38:28.511Z,102550.01
2022-10-07T04:41:01.475Z,102550.01
2022-10-07T04:43:33.002Z,102547.02
2022-10-07T04:46:14.008Z,102553.48
2022-10-07T04:48:46.538Z,102548.20
2022-10-07T04:51:18.324Z,102549.88
2022-10-07T04:53:56.488Z,102543.61
2022-10-07T04:59:17.259Z,102546.63
2022-10-07T05:01:47.212Z,102546.75
2022-10-07T05:04:17.049Z,102546.75
2022-10-07T05:06:47.310Z,102539.78
2022-10-07T05:09:17.195Z,102534.98
2022-10-07T05:11:48.967Z,102535.86
2022-10-07T05:14:22.089Z,102530.09
2022-10-07T05:16:53.946Z,102525.98
2022-10-07T05:19:25.919Z,102528.63
2022-10-07T05:21:55.995Z,102531.27
2022-10-07T05:24:27.013Z,102524.14
2022-10-07T05:26:56.918Z,102529.75
2022-10-07T05:29:26.765Z,102523.58
2022-10-07T05:32:03.946Z,102523.92
2022-10-07T05:34:30.659Z,102523.92
2022-10-07T05:37:01.196Z,102519.09
2022-10-07T05:39:31.003Z,102527.00
2022-10-07T05:42:02.552Z,102525.28
2022-10-07T05:44:34.006Z,102521.15
2022-10-07T05:47:04.577Z,102519.28
2022-10-07T05:49:35.947Z,102519.36
2022-10-07T05:52:08.045Z,102514.18
2022-10-07T05:54:38.187Z,102514.18
2022-10-07T05:57:08.004Z,102506.76
2022-10-07T05:59:37.745Z,102504.87
2022-10-07T06:02:15.436Z,102507.80
2022-10-07T06:04:47.315Z,102510.09
2022-10-07T06:07:21.361Z,102507.53
2022-10-07T06:10:07.351Z,102503.80
2022-10-07T06:12:56.570Z,102498.98
2022-10-07T06:15:26.458Z,102495.24
2022-10-07T06:17:56.472Z,102495.24
2022-10-07T06:20:26.543Z,102500.11
2022-10-07T06:22:58.106Z,102499.23
2022-10-07T06:25:28.495Z,102497.83
2022-10-07T06:28:00.367Z,102499.12
2022-10-07T06:30:30.904Z,102499.12
2022-10-07T06:33:02.100Z,102503.50
2022-10-07T06:35:32.274Z,102498.25
2022-10-07T06:38:02.079Z,102498.65
2022-10-07T06:40:32.005Z,102507.38
2022-10-07T06:43:02.099Z,102501.48
2022-10-07T06:45:34.791Z,102501.48
2022-10-07T06:48:06.206Z,102507.95
2022-10-07T06:50:36.398Z,102498.59
2022-10-07T06:53:06.636Z,102502.25
2022-10-07T06:55:37.725Z,102500.81
2022-10-07T06:58:11.817Z,102499.88
2022-10-07T07:00:41.739Z,102493.61
2022-10-07T07:03:12.227Z,102504.02
2022-10-07T07:05:45.316Z,102504.02
2022-10-07T07:08:17.092Z,102506.55
2022-10-07T07:10:47.179Z,102504.72
2022-10-07T07:13:18.343Z,102506.93
2022-10-07T07:15:59.704Z,102500.50
2022-10-07T07:18:31.219Z,102499.50
2022-10-07T07:21:06.271Z,102505.52
2022-10-07T07:23:36.186Z,102500.58
2022-10-07T07:26:08.194Z,102503.29
2022-10-07T07:28:38.593Z,102507.44
2022-10-07T07:31:11.002Z,102503.50
2022-10-07T07:33:41.588Z,102506.55
2022-10-07T07:36:15.942Z,102505.50
2022-10-07T07:38:59.252Z,102506.49
2022-10-07T07:41:34.899Z,102498.29
2022-10-07T07:44:09.257Z,102495.53
2022-10-07T07:46:43.040Z,102497.36
2022-10-07T07:49:14.155Z,102491.82
2022-10-07T07:51:45.026Z,102491.97
2022-10-07T07:54:16.825Z,102488.14
2022-10-07T07:56:47.655Z,102490.13
2022-10-07T07:59:17.569Z,102487.16
2022-10-07T08:01:47.946Z,102482.79
2022-10-07T08:04:18.029Z,102486.64
2022-10-07T08:06:47.765Z,102484.86
2022-10-07T08:09:17.769Z,102470.77
2022-10-07T08:11:48.436Z,102470.84
2022-10-07T08:14:18.979Z,102473.45
2022-10-07T08:16:51.568Z,102473.66
2022-10-07T08:19:21.649Z,102463.27
2022-10-07T08:21:52.241Z,102473.20
2022-10-07T08:24:25.324Z,102471.38
2022-10-07T08:26:55.779Z,102463.20
2022-10-07T08:29:25.951Z,102466.98
2022-10-07T08:31:55.990Z,102466.42
2022-10-07T08:34:25.649Z,102461.12
2022-10-07T08:36:56.153Z,102457.72
2022-10-07T08:39:27.773Z,102454.66
2022-10-07T08:42:00.596Z,102458.77
2022-10-07T08:44:39.182Z,102452.95
2022-10-07T08:47:17.747Z,102446.63
2022-10-07T08:50:09.683Z,102447.99
2022-10-07T08:52:54.135Z,102452.51
2022-10-07T08:55:41.614Z,102444.84
2022-10-07T08:58:18.451Z,102438.16
2022-10-07T09:01:07.413Z,102444.19
2022-10-07T09:04:11.919Z,102436.97
2022-10-07T09:06:47.538Z,102426.09
2022-10-07T09:09:20.640Z,102430.72
2022-10-07T09:11:53.028Z,102430.72
2022-10-07T09:14:40.520Z,102427.17
2022-10-07T09:17:13.592Z,102418.62
2022-10-07T09:19:51.031Z,102418.62
2022-10-07T09:22:23.574Z,102410.08
2022-10-07T09:24:56.697Z,102409.22
2022-10-07T09:27:26.739Z,102409.22
2022-10-07T09:29:57.154Z,102396.42
2022-10-07T09:32:26.693Z,102393.75
2022-10-07T09:34:56.255Z,102398.82
2022-10-07T09:37:27.796Z,102390.46
2022-10-07T09:40:00.603Z,102387.66
2022-10-07T09:42:33.136Z,102389.80
2022-10-07T09:45:05.876Z,102383.43
2022-10-07T09:47:40.425Z,102377.26
2022-10-07T09:50:31.716Z,102377.26
2022-10-07T09:53:02.929Z,102377.98
2022-10-07T09:55:37.358Z,102367.77
2022-10-07T09:58:21.684Z,102349.16
2022-10-07T10:00:54.364Z,102349.16
2022-10-07T10:03:35.461Z,102367.67
2022-10-07T10:06:09.935Z,102360.70
2022-10-07T10:08:42.901Z,102361.94
2022-10-07T10:11:25.724Z,102355.47
2022-10-07T10:13:56.016Z,102350.23
2022-10-07T10:16:36.383Z,102346.87
2022-10-07T10:19:24.341Z,102354.61
2022-10-07T10:21:56.180Z,102347.97
2022-10-07T10:24:45.755Z,102343.33
2022-10-07T10:27:30.238Z,102341.56
2022-10-07T10:30:05.263Z,102341.93
2022-10-07T10:32:57.254Z,102336.02
2022-10-07T10:35:31.811Z,102332.30
2022-10-07T10:38:21.457Z,102334.84
2022-10-07T10:41:16.535Z,102327.20
2022-10-07T10:44:06.902Z,102323.17
2022-10-07T10:46:52.179Z,102318.83
2022-10-07T10:49:30.850Z,102313.77
2022-10-07T10:52:21.811Z,102309.73
2022-10-07T10:55:13.561Z,102305.41
2022-10-07T10:57:49.373Z,102303.98
2022-10-07T11:00:21.327Z,102293.23
2022-10-07T11:03:16.625Z,102294.11
2022-10-07T11:05:48.089Z,102291.76
2022-10-07T11:08:23.171Z,102288.22
2022-10-07T11:11:01.134Z,102285.98
2022-10-07T11:13:43.970Z,102279.77
2022-10-07T11:16:19.456Z,102268.67
2022-10-07T11:18:57.498Z,102267.93
2022-10-07T11:21:33.068Z,102255.91
2022-10-07T11:24:05.568Z,102246.87
2022-10-07T11:26:46.891Z,102254.63
2022-10-07T11:29:40.320Z,102247.56
2022-10-07T11:32:15.555Z,102246.87
2022-10-07T11:35:10.675Z,102249.70
2022-10-07T11:37:43.205Z,102243.56
2022-10-07T11:40:16.403Z,102226.75
2022-10-07T11:42:49.902Z,102224.45
2022-10-07T11:45:22.682Z,102211.77
2022-10-07T11:48:07.379Z,102206.37
2022-10-07T11:50:51.762Z,102212.17
2022-10-07T11:53:25.107Z,102208.01
2022-10-07T11:56:06.815Z,102203.36
2022-10-07T11:58:39.563Z,102198.14
2022-10-07T12:01:30.532Z,102168.81
2022-10-07T12:04:19.877Z,102168.81
2022-10-07T12:07:25.369Z,102183.02
2022-10-07T12:09:57.585Z,102168.38
2022-10-07T12:12:29.231Z,102164.95
2022-10-07T12:15:03.704Z,102157.58
2022-10-07T12:17:33.465Z,102159.96
2022-10-07T12:20:31.690Z,102159.23
2022-10-07T12:23:22.446Z,102161.51
2022-10-07T12:26:25.963Z,102152.30
2022-10-07T12:28:57.248Z,102138.92
2022-10-07T12:31:35.626Z,102133.64
2022-10-07T12:34:09.835Z,102124.89
2022-10-07T12:36:41.191Z,102120.37
2022-10-07T12:39:14.045Z,102117.55
2022-10-07T12:41:46.614Z,102118.35
2022-10-07T12:44:36.367Z,102115.86
2022-10-07T12:47:18.280Z,102093.25
2022-10-07T12:49:56.780Z,102093.25
2022-10-07T12:52:34.959Z,102098.25
2022-10-07T12:55:11.013Z,102097.91
2022-10-07T12:57:41.570Z,102089.97
2022-10-07T13:00:18.414Z,102084.37
2022-10-07T13:02:53.895Z,102088.83
2022-10-07T13:05:38.254Z,102077.64
2022-10-07T13:08:12.822Z,102072.58
2022-10-07T13:10:49.143Z,102072.11
2022-10-07T13:13:29.109Z,102075.61
2022-10-07T13:16:01.983Z,102069.28
2022-10-07T13:18:43.309Z,102062.47
2022-10-07T13:21:24.997Z,102057.53
2022-10-07T13:23:56.784Z,102051.38
2022-10-07T13:26:27.717Z,102047.27
2022-10-07T13:29:00.287Z,102045.41
2022-10-07T13:31:34.130Z,102044.16
2022-10-07T13:34:08.005Z,102038.42
2022-10-07T13:36:44.739Z,102030.28
2022-10-07T13:39:22.845Z,102030.23
2022-10-07T13:42:02.308Z,102018.30
2022-10-07T13:44:33.488Z,102020.76
2022-10-07T13:47:05.863Z,102009.22
2022-10-07T13:49:38.871Z,102009.91
2022-10-07T13:52:17.195Z,102014.61
2022-10-07T13:54:52.344Z,102013.77
2022-10-07T13:57:23.486Z,102005.75
2022-10-07T13:59:53.568Z,102005.52
2022-10-07T14:02:23.641Z,101998.83
2022-10-07T14:05:02.040Z,101994.66
2022-10-07T14:07:32.226Z,101974.78
2022-10-07T14:10:06.638Z,101974.78
2022-10-07T14:12:39.938Z,101980.05
2022-10-07T14:15:19.537Z,101980.97
2022-10-07T14:17:53.818Z,101977.52
2022-10-07T14:20:32.123Z,101970.06
2022-10-07T14:23:10.554Z,101947.39
2022-10-07T14:25:55.017Z,101947.39
2022-10-07T14:28:30.366Z,101953.61
2022-10-07T14:31:29.793Z,101954.06
2022-10-07T14:34:37.382Z,101951.94
2022-10-07T14:37:21.672Z,101956.54
2022-10-07T14:39:53.996Z,101952.94
2022-10-07T14:42:30.223Z,101948.07
2022-10-07T14:45:01.249Z,101941.36
2022-10-07T14:47:33.553Z,101938.53
2022-10-07T14:50:04.901Z,101936.89
2022-10-07T14:52:44.484Z,101936.89
2022-10-07T14:55:20.126Z,101933.12
2022-10-07T14:57:49.876Z,101925.55
2022-10-07T15:00:24.823Z,101926.56
2022-10-07T15:02:54.677Z,101917.12
2022-10-07T15:05:26.223Z,101923.12
2022-10-07T15:07:56.000Z,101923.12
2022-10-07T15:10:26.669Z,101922.53
2022-10-07T15:12:57.627Z,101909.33
2022-10-07T15:15:27.426Z,101915.31
2022-10-07T15:17:57.156Z,101914.77
2022-10-07T15:20:27.358Z,101917.06
2022-10-07T15:22:57.411Z,101910.48
2022-10-07T15:25:27.145Z,101909.44
2022-10-07T15:27:56.880Z,101881.75
2022-10-07T15:30:26.789Z,101909.13
2022-10-07T15:32:57.778Z,101901.79
2022-10-07T15:35:27.908Z,101898.05
2022-10-07T15:37:57.666Z,101890.55
2022-10-07T15:40:27.131Z,101884.56
2022-10-07T15:42:58.204Z,101878.20
2022-10-07T15:45:27.990Z,101882.89
2022-10-07T15:48:00.475Z,101886.91
2022-10-07T15:50:29.763Z,101876.81
2022-10-07T15:52:59.504Z,101876.81
2022-10-07T15:55:29.427Z,101854.77
2022-10-07T15:57:59.138Z,101851.38
2022-10-07T16:00:29.504Z,101851.38
2022-10-07T16:03:01.259Z,101870.91
2022-10-07T16:05:31.297Z,101861.02
2022-10-07T16:08:02.687Z,101866.70
2022-10-07T16:10:33.688Z,101856.94
2022-10-07T16:13:03.840Z,101857.50
2022-10-07T16:15:34.884Z,101850.44
2022-10-07T16:18:06.533Z,101849.66
2022-10-07T16:20:40.708Z,101847.59
2022-10-07T16:23:10.183Z,101850.47
2022-10-07T16:25:39.924Z,101852.42
2022-10-07T16:28:28.279Z,101849.41
2022-10-07T16:30:58.127Z,101851.55
2022-10-07T16:33:27.861Z,101847.95
2022-10-07T16:35:58.329Z,101850.73
2022-10-07T16:38:27.818Z,101854.40
2022-10-07T16:40:57.855Z,101850.88
2022-10-07T16:43:27.598Z,101852.36
2022-10-07T16:45:58.909Z,101855.27
2022-10-07T16:48:28.602Z,101849.91
2022-10-07T16:50:59.289Z,101854.49
2022-10-07T16:53:29.022Z,101854.16
2022-10-07T16:56:04.648Z,101844.02
2022-10-07T16:58:35.229Z,101849.66
2022-10-07T17:01:07.190Z,101845.75
2022-10-07T17:03:38.357Z,101846.61
2022-10-07T17:06:13.030Z,101851.75
2022-10-07T17:08:48.040Z,101849.09
2022-10-07T17:11:30.208Z,101847.67
2022-10-07T17:14:02.730Z,101847.75
2022-10-07T17:16:38.726Z,101845.45
2022-10-07T17:19:08.733Z,101848.27
2022-10-07T17:21:40.650Z,101840.85
2022-10-07T17:24:13.017Z,101840.85
2022-10-07T17:26:43.287Z,101853.28
2022-10-07T17:29:16.356Z,101844.21
2022-10-07T17:31:48.251Z,101845.73
2022-10-07T17:34:19.714Z,101847.61
2022-10-07T17:36:50.422Z,101848.03
2022-10-07T17:39:20.601Z,101842.16
2022-10-07T17:41:50.408Z,101853.32
2022-10-07T17:44:21.354Z,101843.53
2022-10-07T17:46:51.200Z,101847.77
2022-10-07T17:49:20.775Z,101845.25
2022-10-07T17:51:50.517Z,101841.73
2022-10-07T17:54:20.256Z,101845.34
2022-10-07T17:56:50.349Z,101845.34
2022-10-07T17:59:20.097Z,101846.51
2022-10-07T18:01:49.830Z,101844.86
2022-10-07T18:04:24.602Z,101842.12
2022-10-07T18:06:51.184Z,101848.20
2022-10-07T18:09:22.721Z,101848.25
2022-10-07T18:12:08.582Z,101839.59
2022-10-07T18:14:55.838Z,101850.83
2022-10-07T18:17:25.573Z,101850.83
2022-10-07T18:19:55.603Z,101849.58
2022-10-07T18:22:25.392Z,101839.83
2022-10-07T18:24:56.744Z,101847.14
2022-10-07T18:27:27.074Z,101841.30
2022-10-07T18:29:56.883Z,101838.14
2022-10-07T18:32:26.312Z,101840.56
2022-10-07T18:34:56.094Z,101843.84
2022-10-07T18:37:25.907Z,101838.58
2022-10-07T18:39:55.662Z,101836.16
2022-10-07T18:42:25.418Z,101836.16
2022-10-07T18:44:55.240Z,101835.39
2022-10-07T18:47:24.995Z,101839.63
2022-10-07T18:49:56.396Z,101832.75
2022-10-07T18:52:26.452Z,101834.22
2022-10-07T18:54:56.187Z,101828.19
2022-10-07T18:57:25.997Z,101832.33
2022-10-07T18:59:55.741Z,101832.00
2022-10-07T19:02:25.573Z,101834.31
2022-10-07T19:04:56.111Z,101839.06
2022-10-07T19:07:25.916Z,101835.69
2022-10-07T19:09:55.664Z,101834.31
2022-10-07T19:12:38.825Z,101837.06
2022-10-07T19:15:09.424Z,101846.12
2022-10-07T19:17:39.207Z,101838.31
2022-10-07T19:20:11.176Z,101831.97
2022-10-07T19:22:40.934Z,101835.03
2022-10-07T19:25:28.388Z,101836.19
2022-10-07T19:27:58.098Z,101832.48
2022-10-07T19:30:28.218Z,101835.20
2022-10-07T19:32:58.016Z,101834.80
2022-10-07T19:35:28.610Z,101826.37
2022-10-07T19:37:58.348Z,101829.22
2022-10-07T19:40:28.026Z,101823.97
2022-10-07T19:42:57.791Z,101821.94
2022-10-07T19:45:27.298Z,101816.42
2022-10-07T19:47:57.059Z,101819.62
2022-10-07T19:50:26.794Z,101809.77
2022-10-07T19:52:57.002Z,101811.14
2022-10-07T19:55:29.340Z,101801.52
2022-10-07T19:58:00.428Z,101806.87
2022-10-07T20:00:31.655Z,101804.67
2022-10-07T20:03:01.126Z,101803.52
2022-10-07T20:05:31.486Z,101799.61
2022-10-07T20:08:01.821Z,101801.54
2022-10-07T20:10:31.585Z,101800.24
2022-10-07T20:13:01.641Z,101795.81
2022-10-07T20:15:31.453Z,101795.60
2022-10-07T20:18:03.149Z,101789.45
2022-10-07T20:20:33.962Z,101789.45
2022-10-07T20:23:03.705Z,101788.70
2022-10-07T20:25:33.442Z,101791.45
2022-10-07T20:28:03.325Z,101786.66
2022-10-07T20:30:34.290Z,101785.44
2022-10-07T20:33:05.737Z,101783.68
2022-10-07T20:35:35.774Z,101785.58
2022-10-07T20:38:06.710Z,101783.95
2022-10-07T20:40:53.991Z,101783.38
2022-10-07T20:43:24.061Z,101782.16
2022-10-07T20:45:57.762Z,101793.09
2022-10-07T20:48:29.326Z,101785.74
2022-10-07T20:51:07.995Z,101778.86
2022-10-07T20:53:37.782Z,101779.42
2022-10-07T20:56:09.993Z,101782.02
2022-10-07T20:58:39.875Z,101778.22
2022-10-07T21:01:09.994Z,101773.41
2022-10-07T21:03:40.064Z,101784.45
2022-10-07T21:06:11.804Z,101773.73
2022-10-07T21:08:41.565Z,101776.61
2022-10-07T21:11:11.343Z,101768.63
2022-10-07T21:13:41.139Z,101768.63
2022-10-07T21:16:11.972Z,101765.55
2022-10-07T21:18:41.796Z,101766.14
2022-10-07T21:21:11.605Z,101766.14
2022-10-07T21:23:41.368Z,101769.47
2022-10-07T21:26:11.876Z,101771.25
2022-10-07T21:28:41.697Z,101759.72
2022-10-07T21:31:17.433Z,101768.48
2022-10-07T21:33:49.640Z,101763.73
2022-10-07T21:36:22.647Z,101747.90
2022-10-07T21:38:58.583Z,101760.55
2022-10-07T21:41:38.452Z,101749.75
2022-10-07T21:44:12.865Z,101750.71
2022-10-07T21:46:44.457Z,101745.75
2022-10-07T21:49:15.448Z,101746.23
2022-10-07T21:51:45.547Z,101747.96
2022-10-07T21:54:15.596Z,101744.28
2022-10-07T21:56:46.353Z,101742.48
2022-10-07T21:59:16.157Z,101737.80
2022-10-07T22:01:46.277Z,101735.73
2022-10-07T22:04:19.630Z,101738.06
2022-10-07T22:07:07.016Z,101735.89
2022-10-07T22:09:36.772Z,101731.10
2022-10-07T22:12:08.837Z,101731.10
2022-10-07T22:14:39.409Z,101727.63
2022-10-07T22:17:09.895Z,101728.73
2022-10-07T22:19:39.699Z,101727.27
2022-10-07T22:22:12.995Z,101722.88
2022-10-07T22:24:42.748Z,101721.98
2022-10-07T22:27:12.492Z,101728.52
2022-10-07T22:29:42.416Z,101724.84
2022-10-07T22:32:12.212Z,101720.09
2022-10-07T22:34:59.361Z,101721.19
2022-10-07T22:37:29.323Z,101709.80
2022-10-07T22:39:59.310Z,101715.53
2022-10-07T22:42:29.049Z,101704.80
2022-10-07T22:44:58.810Z,101707.75
2022-10-07T22:47:29.014Z,101705.64
2022-10-07T22:49:58.765Z,101685.34
2022-10-07T22:52:29.170Z,101697.53
2022-10-07T22:54:59.025Z,101702.59
2022-10-07T22:57:28.824Z,101691.31
2022-10-07T23:00:00.490Z,101695.56
2022-10-07T23:02:30.656Z,101700.63
2022-10-07T23:05:01.398Z,101688.98
2022-10-07T23:07:31.150Z,101693.77
2022-10-07T23:10:00.973Z,101697.84
2022-10-07T23:12:30.779Z,101693.66
2022-10-07T23:15:00.270Z,101684.77
2022-10-07T23:17:31.097Z,101690.81
2022-10-07T23:20:01.122Z,101682.72
2022-10-07T23:22:30.846Z,101678.76
2022-10-07T23:25:02.377Z,101678.76
2022-10-07T23:27:32.109Z,101672.64
2022-10-07T23:30:02.627Z,101671.00
2022-10-07T23:32:32.443Z,101667.50
2022-10-07T23:35:02.195Z,101667.16
2022-10-07T23:37:31.950Z,101655.03
2022-10-07T23:40:01.698Z,101651.05
2022-10-07T23:42:31.444Z,101644.59
2022-10-07T23:45:01.460Z,101644.59
2022-10-07T23:47:31.501Z,101642.52
2022-10-07T23:50:01.542Z,101642.75
2022-10-07T23:52:31.489Z,101652.39
2022-10-07T23:55:01.294Z,101646.95
2022-10-07T23:57:31.089Z,101648.39
